Time;durP1;ratioP1;P1;durP2;ratioP2;P2;SDS_P1;SDS_P2;PMS_P1;PMS_P2;Temp;Humidity;BMP_temperature;BMP_pressure;BME280_temperature;BME280_humidity;BME280_pressure;Samples;Min_cycle;Max_cycle;Signal;HPM_P1;HPM_P2
2022/11/30 00:00:49;;;;;;;5.00;4.90;;;6.20;99.90;;;;;;4218658;28;20048;-82
2022/11/30 00:03:09;;;;;;;4.90;4.80;;;6.20;99.90;;;;;;4224523;28;20044;-82
2022/11/30 00:05:29;;;;;;;4.38;4.38;;;6.20;99.90;;;;;;4238421;28;20042;-82
2022/11/30 00:07:49;;;;;;;4.80;4.60;;;6.20;99.90;;;;;;4233902;28;20309;-82
2022/11/30 00:10:09;;;;;;;3.75;3.67;;;6.10;99.90;;;;;;4223962;28;20118;-82
2022/11/30 00:12:29;;;;;;;5.30;5.20;;;6.10;99.90;;;;;;4232963;28;20093;-82
2022/11/30 00:14:49;;;;;;;5.13;5.03;;;6.00;99.90;;;;;;4220797;28;20047;-82
2022/11/30 00:17:08;;;;;;;4.25;4.15;;;6.00;99.90;;;;;;4221204;28;20051;-82
2022/11/30 00:19:28;;;;;;;4.55;4.30;;;5.90;99.90;;;;;;4234471;28;20046;-82
2022/11/30 00:21:48;;;;;;;5.03;4.93;;;5.90;99.90;;;;;;4220944;28;20051;-82
2022/11/30 00:24:07;;;;;;;6.35;6.15;;;5.90;99.90;;;;;;4233623;28;20047;-82
2022/11/30 00:26:28;;;;;;;6.15;6.03;;;5.90;99.90;;;;;;4227458;28;20051;-82
2022/11/30 00:28:47;;;;;;;5.63;5.53;;;5.90;99.90;;;;;;4234202;28;20038;-82
2022/11/30 00:31:11;;;;;;;6.28;6.07;;;5.90;99.90;;;;;;4217851;28;20043;-82
2022/11/30 00:33:33;;;;;;;6.03;5.93;;;5.90;99.90;;;;;;4219134;28;20074;-82
2022/11/30 00:36:00;;;;;;;6.40;6.30;;;5.90;99.90;;;;;;4215655;28;20047;-82
2022/11/30 00:38:20;;;;;;;5.60;5.50;;;5.90;99.90;;;;;;4232212;28;20054;-83
2022/11/30 00:40:40;;;;;;;6.35;6.25;;;5.90;99.90;;;;;;4231757;28;20084;-82
2022/11/30 00:43:00;;;;;;;5.00;4.90;;;5.90;99.90;;;;;;4232066;28;20369;-82
2022/11/30 00:45:20;;;;;;;5.45;5.25;;;5.90;99.90;;;;;;4232682;28;20103;-82
2022/11/30 00:47:41;;;;;;;4.20;4.10;;;5.90;99.90;;;;;;4229440;28;20063;-82
2022/11/30 00:50:01;;;;;;;4.95;4.78;;;5.90;99.90;;;;;;4231523;28;20050;-82
2022/11/30 00:52:21;;;;;;;5.25;5.15;;;5.90;99.90;;;;;;4232384;28;20073;-82
2022/11/30 00:54:41;;;;;;;5.40;5.20;;;5.90;99.90;;;;;;4214111;28;20043;-82
2022/11/30 00:57:00;;;;;;;4.50;4.43;;;5.90;99.90;;;;;;4228495;28;20051;-82
2022/11/30 00:59:21;;;;;;;4.30;4.20;;;5.90;99.90;;;;;;4231615;28;20231;-82
2022/11/30 01:01:40;;;;;;;4.20;4.20;;;5.80;99.90;;;;;;4228654;28;20104;-82
2022/11/30 01:04:00;;;;;;;4.80;4.47;;;5.80;99.90;;;;;;4226048;28;20034;-82
2022/11/30 01:06:20;;;;;;;5.53;5.43;;;5.80;99.90;;;;;;4229132;28;20047;-82
2022/11/30 01:08:40;;;;;;;8.38;8.07;;;5.80;99.90;;;;;;4217633;28;20381;-82
2022/11/30 01:11:32;;;;;;;5.97;5.78;;;5.80;99.90;;;;;;4224659;28;20393;-82
2022/11/30 01:13:53;;;;;;;5.88;5.78;;;5.80;99.90;;;;;;4214875;28;20247;-82
2022/11/30 01:16:17;;;;;;;4.60;4.55;;;5.80;99.90;;;;;;4232632;28;20046;-82
2022/11/30 01:18:38;;;;;;;5.28;5.18;;;5.80;99.90;;;;;;4218664;28;20040;-82
2022/11/30 01:20:57;;;;;;;4.45;4.35;;;5.70;99.90;;;;;;4232572;28;20116;-82
2022/11/30 01:23:17;;;;;;;4.00;4.00;;;5.80;99.90;;;;;;4232794;28;20077;-82
2022/11/30 01:25:38;;;;;;;4.70;4.50;;;5.80;99.90;;;;;;4218702;28;20090;-82
2022/11/30 01:27:58;;;;;;;4.50;4.40;;;5.80;99.90;;;;;;4230828;28;20092;-83
2022/11/30 01:30:20;;;;;;;5.20;5.10;;;5.80;99.90;;;;;;4219075;28;20385;-82
2022/11/30 01:32:40;;;;;;;5.47;5.38;;;5.80;99.90;;;;;;4232504;28;20042;-82
2022/11/30 01:34:59;;;;;;;5.50;5.40;;;5.80;99.90;;;;;;4231130;28;20050;-83
2022/11/30 01:37:19;;;;;;;5.32;5.22;;;5.80;99.90;;;;;;4214810;28;20047;-82
2022/11/30 01:39:39;;;;;;;5.68;5.47;;;5.70;99.90;;;;;;4230177;28;20107;-82
2022/11/30 01:41:59;;;;;;;5.00;4.90;;;5.70;99.90;;;;;;4223356;28;20079;-82
2022/11/30 01:44:25;;;;;;;5.18;5.07;;;5.70;99.90;;;;;;4218135;28;20082;-83
2022/11/30 01:46:52;;;;;;;5.45;5.35;;;5.70;99.90;;;;;;4229832;28;20046;-82
2022/11/30 01:49:17;;;;;;;5.88;5.78;;;5.80;99.90;;;;;;4229729;28;20042;-82
2022/11/30 01:52:09;;;;;;;5.55;5.45;;;5.80;99.90;;;;;;4220175;28;20055;-83
2022/11/30 01:54:35;;;;;;;5.88;5.78;;;5.70;99.90;;;;;;4200983;28;20093;-83
2022/11/30 01:57:31;;;;;;;5.50;5.40;;;5.80;99.90;;;;;;4229597;28;20261;-82
2022/11/30 01:59:55;;;;;;;6.43;6.13;;;5.80;99.90;;;;;;4231965;28;20089;-82
2022/11/30 02:02:22;;;;;;;6.10;6.00;;;5.80;99.90;;;;;;4231985;28;20096;-83
2022/11/30 02:04:43;;;;;;;4.85;4.75;;;5.70;99.90;;;;;;4223588;28;20540;-83
2022/11/30 02:07:05;;;;;;;5.82;5.72;;;5.70;99.90;;;;;;4232747;28;20044;-82
2022/11/30 02:09:27;;;;;;;6.05;5.95;;;5.70;99.90;;;;;;4231712;28;20090;-82
2022/11/30 02:11:48;;;;;;;7.03;6.82;;;5.60;99.90;;;;;;4228270;28;20362;-82
2022/11/30 02:14:22;;;;;;;8.30;7.55;;;5.60;99.90;;;;;;4230188;28;20363;-82
2022/11/30 02:17:14;;;;;;;6.72;6.63;;;5.60;99.90;;;;;;4213297;28;20087;-82
2022/11/30 02:20:02;;;;;;;6.38;6.25;;;5.60;99.90;;;;;;4200411;28;20112;-83
2022/11/30 02:22:50;;;;;;;6.57;6.28;;;5.60;99.90;;;;;;4220475;28;20138;-82
2022/11/30 02:25:22;;;;;;;7.15;6.95;;;5.60;99.90;;;;;;4213745;28;20098;-82
2022/11/30 02:28:01;;;;;;;7.68;7.47;;;5.60;99.90;;;;;;4216958;28;20046;-82
2022/11/30 02:30:22;;;;;;;7.95;7.65;;;5.50;99.90;;;;;;4229728;28;20044;-82
2022/11/30 02:32:46;;;;;;;7.45;7.25;;;5.50;99.90;;;;;;4232382;28;20043;-82
2022/11/30 02:35:07;;;;;;;7.68;7.57;;;5.60;99.90;;;;;;4227730;28;20051;-82
2022/11/30 02:37:28;;;;;;;7.07;6.88;;;5.60;99.90;;;;;;4216892;28;20354;-82
2022/11/30 02:39:48;;;;;;;7.95;7.75;;;5.60;99.90;;;;;;4230153;28;20247;-83
2022/11/30 02:42:13;;;;;;;7.13;7.03;;;5.60;99.90;;;;;;4229689;28;20096;-83
2022/11/30 02:44:32;;;;;;;6.40;6.18;;;5.50;99.90;;;;;;4228517;28;20260;-82
2022/11/30 02:47:07;;;;;;;6.93;6.75;;;5.60;99.90;;;;;;4231258;28;20049;-82
2022/11/30 02:49:57;;;;;;;6.90;6.80;;;5.60;99.90;;;;;;4222055;28;20038;-82
2022/11/30 02:52:18;;;;;;;6.70;6.50;;;5.60;99.90;;;;;;4230947;28;20269;-82
2022/11/30 02:54:38;;;;;;;6.63;6.53;;;5.70;99.90;;;;;;4227298;28;20078;-83
2022/11/30 02:56:58;;;;;;;7.68;7.47;;;5.70;99.90;;;;;;4229773;28;20119;-82
2022/11/30 02:59:19;;;;;;;5.00;4.80;;;5.70;99.90;;;;;;4229897;28;20408;-83
2022/11/30 03:01:39;;;;;;;7.45;7.35;;;5.70;99.90;;;;;;4229656;28;20062;-82
2022/11/30 03:03:59;;;;;;;6.53;6.28;;;5.80;99.90;;;;;;4230213;28;20043;-82
2022/11/30 03:06:19;;;;;;;6.53;6.43;;;5.80;99.90;;;;;;4217077;28;20142;-83
2022/11/30 03:08:38;;;;;;;6.78;6.68;;;5.80;99.90;;;;;;4230021;28;20109;-82
2022/11/30 03:11:03;;;;;;;6.88;6.57;;;5.80;99.90;;;;;;4229148;28;20082;-82
2022/11/30 03:13:23;;;;;;;6.60;6.50;;;5.80;99.90;;;;;;4226934;28;20042;-82
2022/11/30 03:15:43;;;;;;;6.03;5.93;;;5.80;99.90;;;;;;4221464;28;20139;-82
2022/11/30 03:18:04;;;;;;;6.65;6.55;;;5.80;99.90;;;;;;4216143;28;20120;-83
2022/11/30 03:20:24;;;;;;;6.80;6.70;;;5.80;99.90;;;;;;4227674;28;20059;-82
2022/11/30 03:22:44;;;;;;;6.50;6.40;;;5.80;99.90;;;;;;4229713;28;20075;-82
2022/11/30 03:25:05;;;;;;;8.70;8.48;;;5.70;99.90;;;;;;4215097;28;20090;-82
2022/11/30 03:27:25;;;;;;;8.27;8.07;;;5.70;99.90;;;;;;4230083;28;20039;-82
2022/11/30 03:29:45;;;;;;;7.90;7.60;;;5.70;99.90;;;;;;4231783;28;20140;-82
2022/11/30 03:32:06;;;;;;;8.07;7.88;;;5.70;99.90;;;;;;4227962;28;20269;-82
2022/11/30 03:34:27;;;;;;;7.55;7.35;;;5.70;99.90;;;;;;4229670;28;20043;-82
2022/11/30 03:36:48;;;;;;;8.30;8.10;;;5.70;99.90;;;;;;4228443;28;20055;-82
2022/11/30 03:39:08;;;;;;;8.15;7.95;;;5.70;99.90;;;;;;4228359;28;20039;-83
2022/11/30 03:41:28;;;;;;;9.35;9.05;;;5.60;99.90;;;;;;4215021;28;20071;-82
2022/11/30 03:43:48;;;;;;;8.68;8.38;;;5.60;99.90;;;;;;4228542;28;20047;-82
2022/11/30 03:46:08;;;;;;;8.55;8.35;;;5.60;99.90;;;;;;4216922;28;20469;-82
2022/11/30 03:48:29;;;;;;;7.53;7.32;;;5.60;99.90;;;;;;4227736;28;20043;-83
2022/11/30 03:50:49;;;;;;;6.97;6.88;;;5.60;99.90;;;;;;4228722;28;20092;-82
2022/11/30 03:53:09;;;;;;;6.68;6.57;;;5.60;99.90;;;;;;4215522;28;20038;-82
2022/11/30 03:55:30;;;;;;;7.88;7.68;;;5.70;99.90;;;;;;4217799;28;20051;-83
2022/11/30 03:57:50;;;;;;;6.80;6.70;;;5.70;99.90;;;;;;4225398;28;20075;-82
2022/11/30 04:00:12;;;;;;;7.97;7.68;;;5.60;99.90;;;;;;4228858;28;20358;-82
2022/11/30 04:02:32;;;;;;;7.90;7.60;;;5.50;99.90;;;;;;4215721;28;20051;-83
2022/11/30 04:04:52;;;;;;;6.80;6.68;;;5.50;99.90;;;;;;4216415;28;20051;-83
2022/11/30 04:07:12;;;;;;;7.90;7.70;;;5.50;99.90;;;;;;4216981;28;20082;-82
2022/11/30 04:09:32;;;;;;;6.38;6.28;;;5.40;99.90;;;;;;4230916;28;20369;-82
2022/11/30 04:11:52;;;;;;;6.85;6.70;;;5.50;99.90;;;;;;4232797;28;20059;-83
2022/11/30 04:14:12;;;;;;;7.30;7.20;;;5.50;99.90;;;;;;4235247;28;20075;-82
2022/11/30 04:16:32;;;;;;;7.03;6.72;;;5.40;99.90;;;;;;4233648;28;20062;-82
2022/11/30 04:18:54;;;;;;;5.60;5.50;;;5.40;99.90;;;;;;4229193;28;20051;-82
2022/11/30 04:21:15;;;;;;;5.45;5.35;;;5.40;99.90;;;;;;4228025;28;20039;-83
2022/11/30 04:23:38;;;;;;;7.28;7.07;;;5.50;99.90;;;;;;4233032;28;20357;-82
2022/11/30 04:25:58;;;;;;;6.03;5.93;;;5.50;99.90;;;;;;4231678;28;20137;-82
2022/11/30 04:28:19;;;;;;;4.88;4.75;;;5.50;99.90;;;;;;4217693;28;20047;-82
2022/11/30 04:30:39;;;;;;;5.97;5.70;;;5.50;99.90;;;;;;4217759;28;20152;-83
2022/11/30 04:32:59;;;;;;;4.80;4.70;;;5.50;99.90;;;;;;4229974;28;20235;-82
2022/11/30 04:35:19;;;;;;;6.55;6.38;;;5.50;99.90;;;;;;4229028;28;20063;-82
2022/11/30 04:37:39;;;;;;;5.22;5.13;;;5.40;99.90;;;;;;4232125;28;20053;-82
2022/11/30 04:39:59;;;;;;;5.35;5.20;;;5.30;99.90;;;;;;4217746;28;20062;-82
2022/11/30 04:42:19;;;;;;;5.32;5.13;;;5.40;99.90;;;;;;4224440;28;20252;-82
2022/11/30 04:44:39;;;;;;;4.97;4.85;;;5.40;99.90;;;;;;4221064;28;20055;-82
2022/11/30 04:46:59;;;;;;;4.70;4.60;;;5.30;99.90;;;;;;4229840;28;20074;-83
2022/11/30 04:49:19;;;;;;;4.53;4.43;;;5.30;99.90;;;;;;4219213;28;20330;-83
2022/11/30 04:51:39;;;;;;;5.50;5.40;;;5.30;99.90;;;;;;4213957;28;20111;-82
2022/11/30 04:53:59;;;;;;;5.63;5.47;;;5.30;99.90;;;;;;4234394;28;20374;-83
2022/11/30 04:56:18;;;;;;;4.97;4.88;;;5.20;99.90;;;;;;4217365;28;20047;-82
2022/11/30 04:58:38;;;;;;;5.75;5.63;;;5.20;99.90;;;;;;4217458;28;20048;-82
2022/11/30 05:00:58;;;;;;;5.63;5.53;;;5.20;99.90;;;;;;4234481;28;20404;-83
2022/11/30 05:03:18;;;;;;;4.10;4.00;;;5.20;99.90;;;;;;4230695;28;20062;-83
2022/11/30 05:05:38;;;;;;;5.50;5.40;;;5.20;99.90;;;;;;4212580;28;20143;-82
2022/11/30 05:07:58;;;;;;;4.82;4.65;;;5.20;99.90;;;;;;4216845;28;20039;-82
2022/11/30 05:10:19;;;;;;;4.93;4.90;;;5.20;99.90;;;;;;4232342;28;20047;-83
2022/11/30 05:12:38;;;;;;;4.75;4.55;;;5.20;99.90;;;;;;4233229;28;20051;-82
2022/11/30 05:14:58;;;;;;;5.45;5.35;;;5.10;99.90;;;;;;4228337;28;20094;-82
2022/11/30 05:17:18;;;;;;;4.60;4.50;;;5.10;99.90;;;;;;4232339;28;20051;-84
2022/11/30 05:19:38;;;;;;;4.80;4.70;;;5.10;99.90;;;;;;4216808;28;20051;-82
2022/11/30 05:21:58;;;;;;;4.68;4.57;;;5.10;99.90;;;;;;4230223;28;20054;-83
2022/11/30 05:24:18;;;;;;;4.50;4.50;;;5.10;99.90;;;;;;4213164;28;20044;-82
2022/11/30 05:26:37;;;;;;;3.90;3.80;;;5.10;99.90;;;;;;4230536;28;20050;-82
2022/11/30 05:28:57;;;;;;;4.85;4.75;;;5.10;99.90;;;;;;4216921;28;20113;-82
2022/11/30 05:31:16;;;;;;;4.78;4.68;;;5.00;99.90;;;;;;4234291;28;20090;-82
2022/11/30 05:33:36;;;;;;;5.25;4.95;;;5.00;99.90;;;;;;4232301;28;20042;-82
2022/11/30 05:35:56;;;;;;;4.88;4.78;;;5.00;99.90;;;;;;4231470;28;20054;-83
2022/11/30 05:38:17;;;;;;;4.00;3.95;;;5.00;99.90;;;;;;4223916;28;20051;-82
2022/11/30 05:40:36;;;;;;;5.03;4.93;;;5.00;99.90;;;;;;4232012;28;20051;-82
2022/11/30 05:43:00;;;;;;;4.07;4.07;;;4.90;99.90;;;;;;4228167;28;20051;-82
2022/11/30 05:45:20;;;;;;;4.07;4.07;;;5.00;99.90;;;;;;4222783;28;20058;-82
2022/11/30 05:47:40;;;;;;;3.72;3.72;;;4.90;99.90;;;;;;4230089;28;20056;-82
2022/11/30 05:49:59;;;;;;;3.38;3.38;;;4.90;99.90;;;;;;4230192;28;20069;-82
2022/11/30 05:52:19;;;;;;;3.78;3.78;;;4.90;99.90;;;;;;4231393;28;20223;-83
2022/11/30 05:54:38;;;;;;;4.80;4.70;;;4.80;99.90;;;;;;4232720;28;20062;-82
2022/11/30 05:56:58;;;;;;;4.75;4.65;;;4.90;99.90;;;;;;4231025;28;20074;-82
2022/11/30 05:59:18;;;;;;;4.90;4.80;;;4.80;99.90;;;;;;4229618;28;20043;-82
2022/11/30 06:01:37;;;;;;;5.55;5.45;;;4.80;99.90;;;;;;4227816;28;20141;-82
2022/11/30 06:03:58;;;;;;;5.88;5.78;;;4.70;99.90;;;;;;4227508;28;20077;-82
2022/11/30 06:06:18;;;;;;;6.68;6.40;;;4.70;99.90;;;;;;4234475;28;20366;-83
2022/11/30 06:08:38;;;;;;;6.40;6.28;;;4.60;99.90;;;;;;4215565;28;20067;-82
2022/11/30 06:11:00;;;;;;;6.72;6.63;;;4.50;99.90;;;;;;4215581;28;20115;-82
2022/11/30 06:13:20;;;;;;;7.30;7.20;;;4.50;99.90;;;;;;4216409;28;20040;-82
2022/11/30 06:15:46;;;;;;;7.25;6.95;;;4.50;99.90;;;;;;4231752;28;20081;-82
2022/11/30 06:18:07;;;;;;;6.93;6.80;;;4.40;99.90;;;;;;4230160;28;20078;-83
2022/11/30 06:20:27;;;;;;;7.90;6.75;;;4.30;99.90;;;;;;4216888;28;20055;-86
2022/11/30 06:22:47;;;;;;;6.53;6.28;;;4.30;99.90;;;;;;4214838;28;20123;-85
2022/11/30 06:25:06;;;;;;;6.50;6.15;;;4.20;99.90;;;;;;4217581;28;20047;-84
2022/11/30 06:27:30;;;;;;;6.75;6.35;;;4.30;99.90;;;;;;4217669;28;20070;-84
2022/11/30 06:29:50;;;;;;;6.40;6.22;;;4.30;99.90;;;;;;4216528;28;20350;-83
2022/11/30 06:32:09;;;;;;;6.22;5.95;;;4.20;99.90;;;;;;4213459;28;20086;-83
2022/11/30 06:34:30;;;;;;;7.10;6.80;;;4.20;99.90;;;;;;4216983;28;20066;-84
2022/11/30 06:36:50;;;;;;;7.47;7.28;;;4.20;99.90;;;;;;4218548;28;20082;-83
2022/11/30 06:39:11;;;;;;;6.28;6.03;;;4.20;99.90;;;;;;4229775;28;20123;-83
2022/11/30 06:41:31;;;;;;;6.03;5.93;;;4.10;99.90;;;;;;4214942;28;20083;-83
2022/11/30 06:43:50;;;;;;;10.82;8.15;;;4.10;99.90;;;;;;4230050;28;20054;-83
2022/11/30 06:46:10;;;;;;;9.77;8.77;;;4.10;99.90;;;;;;4217612;28;20374;-83
2022/11/30 06:48:30;;;;;;;7.75;7.45;;;4.00;99.90;;;;;;4214963;28;20054;-83
2022/11/30 06:50:50;;;;;;;8.60;7.75;;;3.90;99.90;;;;;;4223137;28;20239;-83
2022/11/30 06:53:10;;;;;;;6.93;6.57;;;3.90;99.90;;;;;;4228639;28;20078;-83
2022/11/30 06:55:31;;;;;;;8.07;7.60;;;3.90;99.90;;;;;;4230322;28;20090;-83
2022/11/30 06:57:52;;;;;;;8.05;7.85;;;3.90;99.90;;;;;;4226890;28;20074;-83
2022/11/30 07:00:13;;;;;;;7.57;7.38;;;3.90;99.90;;;;;;4229919;28;20051;-84
2022/11/30 07:02:33;;;;;;;7.68;7.47;;;3.90;99.90;;;;;;4229180;28;20081;-83
2022/11/30 07:04:53;;;;;;;8.80;8.40;;;3.90;99.90;;;;;;4229275;28;20043;-83
2022/11/30 07:07:12;;;;;;;7.07;6.82;;;3.90;99.90;;;;;;4215834;28;20073;-83
2022/11/30 07:09:36;;;;;;;8.82;7.85;;;4.00;99.90;;;;;;4211533;28;20135;-83
2022/11/30 07:11:56;;;;;;;7.35;7.05;;;4.00;99.90;;;;;;4228838;28;20046;-83
2022/11/30 07:14:15;;;;;;;8.32;8.05;;;4.00;99.90;;;;;;4228577;28;20278;-84
2022/11/30 07:16:35;;;;;;;8.50;8.13;;;4.00;99.90;;;;;;4233460;28;20109;-84
2022/11/30 07:18:55;;;;;;;7.93;7.70;;;4.10;99.90;;;;;;4217540;28;20304;-83
2022/11/30 07:21:15;;;;;;;25.42;9.82;;;4.00;99.90;;;;;;4230859;28;20254;-84
2022/11/30 07:26:16;;;;;;;8.25;7.93;;;4.10;99.90;;;;;;4230247;28;20043;-84
2022/11/30 07:28:50;;;;;;;8.57;8.25;;;4.10;99.90;;;;;;4212398;28;20075;-83
2022/11/30 07:31:30;;;;;;;8.63;7.85;;;4.10;99.90;;;;;;4228457;28;20044;-84
2022/11/30 07:33:51;;;;;;;7.93;7.65;;;4.20;99.90;;;;;;4223655;28;20422;-84
2022/11/30 07:36:12;;;;;;;7.03;6.72;;;4.20;99.90;;;;;;4218880;28;20117;-83
2022/11/30 07:38:32;;;;;;;7.82;7.43;;;4.20;99.90;;;;;;4214643;28;20047;-83
2022/11/30 07:40:51;;;;;;;14.80;13.48;;;4.20;99.90;;;;;;4217474;28;20342;-83
2022/11/30 07:43:11;;;;;;;17.08;15.25;;;4.30;99.90;;;;;;4216380;28;20087;-85
2022/11/30 07:45:31;;;;;;;12.25;11.43;;;4.20;99.90;;;;;;4218370;28;20394;-84
2022/11/30 07:47:50;;;;;;;14.38;13.10;;;4.20;99.90;;;;;;4224535;28;20054;-84
2022/11/30 07:50:10;;;;;;;11.93;11.00;;;4.20;99.90;;;;;;4222604;28;20099;-84
2022/11/30 07:52:30;;;;;;;10.98;10.45;;;4.20;99.90;;;;;;4218792;28;20078;-84
2022/11/30 07:54:50;;;;;;;10.63;10.07;;;4.20;99.90;;;;;;4233199;28;20042;-84
2022/11/30 07:57:11;;;;;;;12.98;12.27;;;4.20;99.90;;;;;;4232545;28;20074;-84
2022/11/30 07:59:31;;;;;;;12.02;11.25;;;4.30;99.90;;;;;;4221729;28;20082;-84
2022/11/30 08:01:50;;;;;;;11.05;10.55;;;4.30;99.90;;;;;;4221273;28;20079;-84
2022/11/30 08:04:12;;;;;;;11.93;11.15;;;4.30;99.90;;;;;;4235518;28;20103;-84
2022/11/30 08:06:32;;;;;;;10.70;10.00;;;4.30;99.90;;;;;;4229174;28;20235;-84
2022/11/30 08:08:55;;;;;;;13.52;12.65;;;4.30;99.90;;;;;;4231856;28;20112;-84
2022/11/30 08:11:18;;;;;;;14.18;13.18;;;4.30;99.90;;;;;;4232363;28;20059;-84
2022/11/30 08:13:39;;;;;;;11.07;10.63;;;4.40;99.90;;;;;;4229051;28;20058;-84
2022/11/30 08:16:05;;;;;;;15.05;13.95;;;4.40;99.90;;;;;;4233143;28;20063;-84
2022/11/30 08:18:25;;;;;;;21.05;19.27;;;4.50;99.90;;;;;;4219440;28;20048;-84
2022/11/30 08:20:44;;;;;;;17.00;15.23;;;4.50;99.90;;;;;;4217988;28;20629;-84
2022/11/30 08:23:09;;;;;;;10.30;9.73;;;4.50;99.90;;;;;;4232446;28;20046;-83
2022/11/30 08:25:30;;;;;;;8.63;7.95;;;4.60;99.90;;;;;;4235166;28;20054;-83
2022/11/30 08:27:50;;;;;;;9.30;8.88;;;4.60;99.90;;;;;;4219259;28;20044;-83
2022/11/30 08:30:10;;;;;;;10.93;10.38;;;4.70;99.90;;;;;;4217525;28;20091;-83
2022/11/30 08:32:30;;;;;;;12.10;11.30;;;4.70;99.90;;;;;;4220884;28;20053;-83
2022/11/30 08:34:50;;;;;;;11.93;11.23;;;4.70;99.90;;;;;;4218010;28;20113;-83
2022/11/30 08:37:10;;;;;;;12.13;11.30;;;4.80;99.90;;;;;;4219347;28;20062;-83
2022/11/30 08:39:32;;;;;;;10.60;10.00;;;4.70;99.90;;;;;;4217613;28;20260;-84
2022/11/30 08:41:52;;;;;;;9.70;9.40;;;4.70;99.90;;;;;;4232156;28;20051;-83
2022/11/30 08:44:12;;;;;;;10.70;10.10;;;4.80;99.90;;;;;;4218665;28;20286;-83
2022/11/30 08:46:33;;;;;;;10.10;9.73;;;4.90;99.90;;;;;;4225222;28;20062;-83
2022/11/30 08:49:13;;;;;;;8.55;8.25;;;5.00;99.90;;;;;;4226045;28;20359;-84
2022/11/30 08:51:42;;;;;;;8.20;7.95;;;5.10;99.90;;;;;;4221807;28;20042;-83
2022/11/30 08:54:22;;;;;;;7.90;7.70;;;5.20;99.90;;;;;;4221682;28;20042;-83
2022/11/30 08:56:41;;;;;;;7.68;7.47;;;5.30;99.90;;;;;;4217091;28;20093;-83
2022/11/30 08:59:01;;;;;;;9.45;8.13;;;5.40;99.90;;;;;;4231471;28;20039;-83
2022/11/30 09:01:25;;;;;;;6.80;6.40;;;5.50;99.90;;;;;;4216865;28;20263;-83
2022/11/30 09:03:53;;;;;;;7.25;6.85;;;5.50;99.90;;;;;;4217407;28;20117;-83
2022/11/30 09:06:19;;;;;;;6.38;6.15;;;5.60;99.90;;;;;;4214625;28;20048;-83
2022/11/30 09:08:40;;;;;;;7.30;7.10;;;5.60;99.90;;;;;;4223456;28;20059;-83
2022/11/30 09:11:36;;;;;;;9.00;8.63;;;5.70;99.90;;;;;;4230719;28;20086;-83
2022/11/30 09:13:58;;;;;;;12.00;11.30;;;5.80;99.90;;;;;;4179025;28;20079;-83
2022/11/30 09:16:19;;;;;;;7.68;7.22;;;5.90;99.90;;;;;;4167419;28;20080;-83
2022/11/30 09:18:40;;;;;;;7.32;7.07;;;5.90;99.90;;;;;;4179396;28;20125;-83
2022/11/30 09:21:03;;;;;;;7.60;7.15;;;5.90;99.90;;;;;;4179159;28;20267;-83
2022/11/30 09:23:23;;;;;;;7.85;7.65;;;5.90;99.90;;;;;;4185193;28;20044;-83
2022/11/30 09:25:43;;;;;;;10.73;10.13;;;6.00;99.90;;;;;;4172911;28;20052;-83
2022/11/30 09:28:03;;;;;;;8.98;8.38;;;6.00;99.90;;;;;;4176984;28;20117;-83
2022/11/30 09:30:29;;;;;;;6.65;6.45;;;6.00;99.90;;;;;;4170142;28;20267;-83
2022/11/30 09:32:48;;;;;;;6.53;6.43;;;6.20;99.90;;;;;;4180440;28;20141;-83
2022/11/30 09:35:09;;;;;;;7.25;7.15;;;6.30;99.90;;;;;;4181648;28;20133;-83
2022/11/30 09:37:32;;;;;;;7.03;6.50;;;6.40;99.90;;;;;;4167151;28;20055;-83
2022/11/30 09:39:52;;;;;;;6.75;6.47;;;6.40;99.90;;;;;;4176546;28;20056;-83
2022/11/30 09:42:14;;;;;;;7.20;7.00;;;6.50;99.90;;;;;;4166159;28;20120;-83
2022/11/30 09:44:43;;;;;;;6.33;6.13;;;6.60;99.90;;;;;;4167276;28;20181;-83
2022/11/30 09:47:17;;;;;;;7.72;7.40;;;6.50;99.90;;;;;;4183961;28;20290;-84
2022/11/30 09:49:42;;;;;;;6.95;6.60;;;6.60;99.90;;;;;;4229025;28;20088;-82
2022/11/30 09:52:05;;;;;;;7.57;7.10;;;6.60;99.90;;;;;;4221094;28;20098;-83
2022/11/30 09:54:35;;;;;;;6.40;6.25;;;6.60;99.90;;;;;;4230201;28;20043;-83
2022/11/30 09:56:55;;;;;;;12.35;11.30;;;6.60;99.90;;;;;;4216709;28;20381;-82
2022/11/30 09:59:28;;;;;;;12.10;11.38;;;6.70;99.90;;;;;;4227907;28;20054;-83
2022/11/30 10:01:48;;;;;;;15.00;7.28;;;6.70;99.90;;;;;;4230257;28;20116;-83
2022/11/30 10:04:22;;;;;;;7.93;7.63;;;6.80;99.90;;;;;;4221797;28;20062;-83
2022/11/30 10:07:05;;;;;;;5.53;5.13;;;7.00;99.90;;;;;;4230385;28;20051;-83
2022/11/30 10:09:37;;;;;;;7.70;6.28;;;7.00;99.90;;;;;;4187462;28;20274;-83
2022/11/30 10:12:20;;;;;;;10.00;9.43;;;7.00;99.90;;;;;;4229116;28;20081;-83
2022/11/30 10:15:14;;;;;;;6.25;5.93;;;6.90;99.90;;;;;;4229503;28;20050;-83
2022/11/30 10:17:55;;;;;;;6.28;5.72;;;6.90;99.90;;;;;;4232993;28;20050;-83
2022/11/30 10:20:38;;;;;;;7.25;6.85;;;6.70;99.90;;;;;;4232895;28;20081;-83
2022/11/30 10:23:17;;;;;;;8.60;7.35;;;6.50;99.90;;;;;;4218694;28;20155;-83
2022/11/30 10:25:55;;;;;;;7.05;6.60;;;6.50;99.90;;;;;;4232251;28;20094;-83
2022/11/30 10:28:35;;;;;;;5.88;5.18;;;6.60;99.90;;;;;;4230667;28;20077;-83
2022/11/30 10:31:12;;;;;;;8.85;6.00;;;6.50;99.90;;;;;;4217933;28;20227;-83
2022/11/30 10:33:50;;;;;;;5.75;5.63;;;6.60;99.90;;;;;;4233125;28;20043;-83
2022/11/30 10:36:25;;;;;;;7.15;6.22;;;6.50;99.90;;;;;;4220655;28;20389;-83
2022/11/30 10:38:53;;;;;;;13.70;6.57;;;6.50;99.90;;;;;;4232314;28;20235;-83
2022/11/30 10:41:25;;;;;;;6.63;6.47;;;6.40;99.90;;;;;;4217982;28;20094;-83
2022/11/30 10:44:03;;;;;;;6.00;5.72;;;6.30;99.90;;;;;;4217332;28;20097;-83
2022/11/30 10:46:28;;;;;;;6.57;6.47;;;6.30;99.90;;;;;;4216140;28;20055;-83
2022/11/30 10:48:58;;;;;;;6.75;6.55;;;6.30;99.90;;;;;;4230525;28;20362;-83
2022/11/30 10:51:19;;;;;;;5.82;5.60;;;6.30;99.90;;;;;;4229650;28;20063;-83
2022/11/30 10:53:39;;;;;;;7.75;7.43;;;6.30;99.90;;;;;;4232658;28;20255;-83
2022/11/30 10:56:05;;;;;;;7.55;7.38;;;6.30;99.90;;;;;;4230672;28;20065;-83
2022/11/30 10:58:42;;;;;;;8.20;7.88;;;6.40;99.90;;;;;;4216115;28;20071;-83
2022/11/30 11:01:09;;;;;;;7.28;7.07;;;6.20;99.90;;;;;;4224651;28;20101;-84
2022/11/30 11:03:29;;;;;;;8.00;7.75;;;6.20;99.90;;;;;;4215348;28;20119;-83
2022/11/30 11:06:02;;;;;;;7.85;7.55;;;6.20;99.90;;;;;;4230395;28;20088;-83
2022/11/30 11:08:26;;;;;;;7.35;7.25;;;6.10;99.90;;;;;;4213138;28;20039;-83
2022/11/30 11:10:50;;;;;;;6.75;6.60;;;6.10;99.90;;;;;;4216128;28;20051;-83
2022/11/30 11:13:36;;;;;;;6.38;6.22;;;6.10;99.90;;;;;;4228066;28;20047;-83
2022/11/30 11:15:58;;;;;;;8.55;7.30;;;6.10;99.90;;;;;;4214653;28;20055;-83
2022/11/30 11:18:25;;;;;;;7.43;7.22;;;6.00;99.90;;;;;;4229902;28;20078;-83
2022/11/30 11:20:46;;;;;;;6.88;6.78;;;6.00;99.90;;;;;;4228992;28;20077;-83
2022/11/30 11:23:18;;;;;;;8.82;8.50;;;6.00;99.90;;;;;;4230117;28;20357;-83
2022/11/30 11:25:41;;;;;;;9.15;8.85;;;6.00;99.90;;;;;;4229580;28;20157;-83
2022/11/30 11:28:17;;;;;;;9.50;9.02;;;6.00;99.90;;;;;;4227576;28;20051;-83
2022/11/30 11:30:37;;;;;;;8.82;8.35;;;6.00;99.90;;;;;;4212563;28;20108;-83
2022/11/30 11:33:12;;;;;;;8.73;8.32;;;6.00;99.90;;;;;;4234777;28;20223;-83
2022/11/30 11:35:38;;;;;;;6.82;6.53;;;6.00;99.90;;;;;;4227023;28;20085;-83
2022/11/30 11:37:58;;;;;;;7.63;7.50;;;6.10;99.90;;;;;;4227795;28;20063;-83
2022/11/30 11:40:21;;;;;;;9.07;8.65;;;6.10;99.90;;;;;;4217784;28;20081;-84
2022/11/30 11:42:46;;;;;;;7.43;7.22;;;6.20;99.90;;;;;;4229440;28;20046;-84
2022/11/30 11:45:34;;;;;;;8.95;8.75;;;6.20;99.90;;;;;;4231065;28;20042;-83
2022/11/30 11:48:08;;;;;;;8.32;7.82;;;6.20;99.90;;;;;;4227288;28;20088;-83
2022/11/30 11:50:36;;;;;;;8.88;8.57;;;6.20;99.90;;;;;;4232459;28;20385;-84
2022/11/30 11:53:23;;;;;;;9.48;9.07;;;6.30;99.90;;;;;;4217293;28;20246;-83
2022/11/30 11:55:44;;;;;;;9.50;9.00;;;6.50;99.90;;;;;;4215645;28;20081;-83
2022/11/30 11:58:05;;;;;;;8.65;8.35;;;6.60;99.90;;;;;;4229178;28;20043;-84
2022/11/30 12:00:25;;;;;;;8.40;8.13;;;6.70;99.90;;;;;;4215249;28;20097;-83
2022/11/30 12:03:22;;;;;;;8.45;8.15;;;6.60;99.90;;;;;;4230886;28;20303;-83
2022/11/30 12:05:50;;;;;;;10.45;9.95;;;6.60;99.90;;;;;;4228522;28;20042;-84
2022/11/30 12:08:27;;;;;;;10.25;9.88;;;6.60;99.90;;;;;;4215803;28;20044;-84
2022/11/30 12:11:05;;;;;;;11.20;10.48;;;6.90;99.90;;;;;;4229720;28;20239;-84
2022/11/30 12:13:33;;;;;;;9.05;8.65;;;6.80;99.90;;;;;;4228506;28;20092;-83
2022/11/30 12:16:14;;;;;;;11.93;11.32;;;6.70;99.90;;;;;;4221995;28;20149;-84
2022/11/30 12:18:46;;;;;;;9.68;9.20;;;6.70;99.90;;;;;;4219061;28;20111;-84
2022/11/30 12:21:14;;;;;;;10.50;10.00;;;6.70;99.90;;;;;;4219678;28;20113;-84
2022/11/30 12:23:34;;;;;;;9.20;8.63;;;6.90;99.90;;;;;;4232321;28;20084;-84
2022/11/30 12:26:40;;;;;;;12.15;11.25;;;6.90;99.90;;;;;;4229531;28;20047;-84
2022/11/30 12:29:02;;;;;;;9.57;9.18;;;7.10;99.90;;;;;;4233325;28;20055;-84
2022/11/30 12:31:40;;;;;;;8.30;7.90;;;7.20;99.90;;;;;;4232716;28;20147;-84
2022/11/30 12:34:09;;;;;;;7.45;7.07;;;7.20;99.90;;;;;;4217146;28;20377;-84
2022/11/30 12:36:38;;;;;;;8.50;8.20;;;7.20;99.90;;;;;;4230953;28;20059;-84
2022/11/30 12:39:19;;;;;;;8.77;8.13;;;7.30;99.90;;;;;;4218072;28;20139;-83
2022/11/30 12:41:45;;;;;;;6.10;6.00;;;7.40;99.90;;;;;;4237218;28;20384;-83